Time;durP1;ratioP1;P1;durP2;ratioP2;P2;SDS_P1;SDS_P2;PMS_P1;PMS_P2;Temp;Humidity;BMP_temperature;BMP_pressure;BME280_temperature;BME280_humidity;BME280_pressure;Samples;Min_cycle;Max_cycle;Signal;HPM_P1;HPM_P2
2022/01/10 00:00:55;;;;;;;14.07;7.05;;;;;;;;;;10458165;28;20690;-65
2022/01/10 00:05:56;;;;;;;11.00;6.35;;;;;;;;;;10459087;28;20199;-65
2022/01/10 00:10:57;;;;;;;15.65;7.32;;;;;;;;;;10455251;28;20227;-65
2022/01/10 00:15:58;;;;;;;14.27;6.53;;;;;;;;;;10451942;28;20197;-65
2022/01/10 00:20:59;;;;;;;12.90;7.18;;;;;;;;;;10457997;28;20233;-65
2022/01/10 00:26:00;;;;;;;15.10;7.53;;;;;;;;;;10456940;28;20198;-65
2022/01/10 00:31:01;;;;;;;17.15;8.15;;;;;;;;;;10456346;28;20210;-64
2022/01/10 00:36:02;;;;;;;14.02;7.75;;;;;;;;;;10457197;28;20703;-65
2022/01/10 00:41:04;;;;;;;16.50;7.32;;;;;;;;;;10457621;28;20206;-65
2022/01/10 00:46:05;;;;;;;15.70;7.85;;;;;;;;;;10453709;28;20638;-64
2022/01/10 00:51:06;;;;;;;17.00;8.43;;;;;;;;;;10453972;28;20258;-66
2022/01/10 00:56:08;;;;;;;16.77;8.02;;;;;;;;;;10454668;28;20761;-64
2022/01/10 01:01:09;;;;;;;13.18;7.53;;;;;;;;;;10453934;28;20211;-64
2022/01/10 01:06:13;;;;;;;16.05;7.60;;;;;;;;;;10453355;28;20195;-64
2022/01/10 01:11:54;;;;;;;14.57;7.22;;;;;;;;;;10442337;28;20221;-64
2022/01/10 01:17:08;;;;;;;16.38;7.43;;;;;;;;;;10453969;28;20237;-65
2022/01/10 01:27:30;;;;;;;18.13;7.63;;;;;;;;;;10454050;28;20308;-65
2022/01/10 01:32:31;;;;;;;16.58;7.75;;;;;;;;;;10451392;28;20583;-64
2022/01/10 01:37:32;;;;;;;13.15;8.00;;;;;;;;;;10451700;28;20721;-65
2022/01/10 01:42:38;;;;;;;15.20;7.95;;;;;;;;;;10450626;28;20190;-65
2022/01/10 01:47:43;;;;;;;20.85;8.48;;;;;;;;;;10448938;28;20721;-65
2022/01/10 01:52:53;;;;;;;16.15;8.15;;;;;;;;;;10451299;28;20217;-65
2022/01/10 01:57:54;;;;;;;19.42;9.10;;;;;;;;;;10451879;28;20182;-65
2022/01/10 02:02:56;;;;;;;15.90;8.18;;;;;;;;;;10443494;28;21040;-64
2022/01/10 02:08:00;;;;;;;17.08;9.48;;;;;;;;;;10435954;28;20199;-65
2022/01/10 02:13:01;;;;;;;15.45;8.32;;;;;;;;;;10455154;28;20214;-64
2022/01/10 02:18:03;;;;;;;17.38;9.05;;;;;;;;;;10451394;28;20197;-64
2022/01/10 02:23:04;;;;;;;15.38;9.18;;;;;;;;;;10449825;28;20202;-65
2022/01/10 02:28:18;;;;;;;16.42;8.82;;;;;;;;;;10452823;28;20225;-64
2022/01/10 02:33:19;;;;;;;17.92;9.48;;;;;;;;;;10433053;28;20802;-65
2022/01/10 02:38:20;;;;;;;21.80;9.40;;;;;;;;;;10437930;28;20222;-65
2022/01/10 02:43:21;;;;;;;19.13;9.18;;;;;;;;;;10450941;28;20186;-64
2022/01/10 02:48:23;;;;;;;21.83;9.73;;;;;;;;;;10450987;28;20239;-65
2022/01/10 02:53:24;;;;;;;16.38;9.10;;;;;;;;;;10442132;28;20221;-65
2022/01/10 02:58:25;;;;;;;25.80;10.40;;;;;;;;;;10433495;28;20658;-65
2022/01/10 03:03:27;;;;;;;21.85;10.23;;;;;;;;;;10437443;28;20682;-65
2022/01/10 03:08:30;;;;;;;20.67;9.88;;;;;;;;;;10435995;28;21033;-65
2022/01/10 03:13:33;;;;;;;22.95;9.90;;;;;;;;;;10438994;28;20215;-64
2022/01/10 03:18:35;;;;;;;20.13;9.85;;;;;;;;;;10443864;28;20764;-65
2022/01/10 03:23:36;;;;;;;18.35;10.05;;;;;;;;;;10447544;28;20248;-64
2022/01/10 03:28:38;;;;;;;19.48;9.80;;;;;;;;;;10450597;28;20654;-64
2022/01/10 03:33:39;;;;;;;23.48;10.18;;;;;;;;;;10453416;28;20220;-65
2022/01/10 03:38:41;;;;;;;21.05;10.45;;;;;;;;;;10455766;28;20179;-65
2022/01/10 03:43:42;;;;;;;28.80;10.73;;;;;;;;;;10437751;28;20191;-65
2022/01/10 03:48:44;;;;;;;23.25;11.15;;;;;;;;;;10447204;28;20356;-65
2022/01/10 03:53:46;;;;;;;24.08;11.10;;;;;;;;;;10446978;28;20240;-65
2022/01/10 03:58:47;;;;;;;23.02;11.15;;;;;;;;;;10443086;28;20198;-64
2022/01/10 04:03:48;;;;;;;27.17;11.20;;;;;;;;;;10437575;28;20985;-65
2022/01/10 04:08:50;;;;;;;26.55;11.35;;;;;;;;;;10440253;28;20800;-65
2022/01/10 04:13:51;;;;;;;24.17;12.05;;;;;;;;;;10456623;28;20702;-65
2022/01/10 04:18:53;;;;;;;19.58;10.40;;;;;;;;;;10440618;28;20321;-64
2022/01/10 04:23:54;;;;;;;18.08;10.60;;;;;;;;;;10441184;28;20190;-65
2022/01/10 04:28:55;;;;;;;16.80;10.55;;;;;;;;;;10450467;28;20198;-65
2022/01/10 04:33:56;;;;;;;22.23;10.02;;;;;;;;;;10454432;28;20215;-65
2022/01/10 04:38:58;;;;;;;17.85;10.50;;;;;;;;;;10450504;28;20275;-64
2022/01/10 04:44:01;;;;;;;19.17;10.30;;;;;;;;;;10446329;28;20584;-65
2022/01/10 04:49:03;;;;;;;21.67;10.10;;;;;;;;;;10435702;28;20223;-65
2022/01/10 04:54:04;;;;;;;20.15;10.00;;;;;;;;;;10436242;28;20309;-64
2022/01/10 04:59:06;;;;;;;19.95;9.77;;;;;;;;;;10433673;28;20808;-65
2022/01/10 05:04:09;;;;;;;16.67;8.38;;;;;;;;;;10451692;28;20217;-65
2022/01/10 05:09:10;;;;;;;18.73;10.05;;;;;;;;;;10432421;28;20198;-65
2022/01/10 05:14:23;;;;;;;17.77;9.27;;;;;;;;;;10432797;28;20211;-64
2022/01/10 05:19:24;;;;;;;16.17;9.32;;;;;;;;;;10451750;28;20217;-65
2022/01/10 05:24:25;;;;;;;18.85;9.52;;;;;;;;;;10452740;28;20283;-65
2022/01/10 05:29:26;;;;;;;20.92;9.80;;;;;;;;;;10449711;28;20228;-65
2022/01/10 05:34:30;;;;;;;17.63;9.63;;;;;;;;;;10449536;28;20238;-65
2022/01/10 05:39:31;;;;;;;18.83;9.57;;;;;;;;;;10437615;28;20202;-65
2022/01/10 05:44:33;;;;;;;16.13;9.32;;;;;;;;;;10454035;28;20820;-65
2022/01/10 05:49:35;;;;;;;19.45;9.70;;;;;;;;;;10453117;28;20214;-65
2022/01/10 05:54:38;;;;;;;17.88;10.07;;;;;;;;;;10444512;28;20205;-65
2022/01/10 05:59:40;;;;;;;21.85;11.75;;;;;;;;;;10434712;28;20263;-65
2022/01/10 06:04:42;;;;;;;19.42;11.18;;;;;;;;;;10432487;28;20272;-65
2022/01/10 06:10:05;;;;;;;16.95;10.60;;;;;;;;;;10450539;28;20194;-65
2022/01/10 06:15:06;;;;;;;27.52;14.10;;;;;;;;;;10442497;28;20219;-65
2022/01/10 06:20:12;;;;;;;23.92;13.23;;;;;;;;;;10453433;28;20178;-65
2022/01/10 06:25:15;;;;;;;28.38;12.48;;;;;;;;;;10440687;28;20261;-65
2022/01/10 06:30:17;;;;;;;30.10;12.15;;;;;;;;;;10440008;28;20214;-65
2022/01/10 06:35:20;;;;;;;37.75;13.05;;;;;;;;;;10432869;28;20215;-64
2022/01/10 06:40:22;;;;;;;35.75;14.48;;;;;;;;;;10454504;28;20186;-62
2022/01/10 06:45:23;;;;;;;23.02;11.70;;;;;;;;;;10437295;28;20204;-65
2022/01/10 06:50:24;;;;;;;30.75;12.20;;;;;;;;;;10439813;28;20272;-65
2022/01/10 06:55:26;;;;;;;22.88;11.40;;;;;;;;;;10436039;28;20238;-65
2022/01/10 07:00:29;;;;;;;31.85;11.73;;;;;;;;;;10445735;28;21722;-65
2022/01/10 07:05:33;;;;;;;25.63;11.95;;;;;;;;;;10436566;28;20708;-62
2022/01/10 07:10:41;;;;;;;24.45;11.70;;;;;;;;;;10432453;28;20197;-64
2022/01/10 07:15:44;;;;;;;23.33;12.43;;;;;;;;;;10429833;28;20686;-64
2022/01/10 07:20:45;;;;;;;24.90;12.52;;;;;;;;;;10433866;28;20558;-64
2022/01/10 07:25:47;;;;;;;27.55;13.63;;;;;;;;;;10431742;28;20182;-64
2022/01/10 07:30:49;;;;;;;22.67;11.70;;;;;;;;;;10434586;28;20218;-64
2022/01/10 07:35:50;;;;;;;22.60;11.68;;;;;;;;;;10446724;28;20304;-65
2022/01/10 07:40:51;;;;;;;24.55;11.75;;;;;;;;;;10450179;28;20190;-64
2022/01/10 07:45:52;;;;;;;29.08;12.90;;;;;;;;;;10447552;28;20190;-64
2022/01/10 07:50:53;;;;;;;29.48;12.32;;;;;;;;;;10451371;28;20210;-64
2022/01/10 07:55:54;;;;;;;27.08;11.82;;;;;;;;;;10452480;28;20889;-64
2022/01/10 08:00:55;;;;;;;30.13;12.00;;;;;;;;;;10450510;28;20213;-64
2022/01/10 08:05:56;;;;;;;26.90;12.23;;;;;;;;;;10458911;28;20199;-66
2022/01/10 08:10:57;;;;;;;25.88;10.80;;;;;;;;;;10456137;28;20194;-65
2022/01/10 08:15:58;;;;;;;19.27;10.88;;;;;;;;;;10455554;28;20205;-65
2022/01/10 08:20:59;;;;;;;24.98;10.30;;;;;;;;;;10455101;28;20218;-65
2022/01/10 08:26:01;;;;;;;27.63;11.32;;;;;;;;;;10456298;28;20195;-65
2022/01/10 08:31:02;;;;;;;22.40;10.38;;;;;;;;;;10457212;28;20233;-65
2022/01/10 08:36:03;;;;;;;16.92;9.02;;;;;;;;;;10456126;28;20195;-65
2022/01/10 08:41:04;;;;;;;27.92;9.70;;;;;;;;;;10457450;28;20672;-64
2022/01/10 08:46:05;;;;;;;23.83;10.55;;;;;;;;;;10459001;28;20194;-64
2022/01/10 08:51:06;;;;;;;25.77;11.35;;;;;;;;;;10457572;28;20238;-65
2022/01/10 08:56:07;;;;;;;25.00;9.82;;;;;;;;;;10456503;28;20529;-65
2022/01/10 09:01:08;;;;;;;21.17;10.27;;;;;;;;;;10451219;28;20214;-65
2022/01/10 09:06:09;;;;;;;20.35;9.75;;;;;;;;;;10457984;28;20194;-66
2022/01/10 09:11:11;;;;;;;25.13;10.18;;;;;;;;;;10456336;28;20260;-65
2022/01/10 09:16:14;;;;;;;30.58;11.75;;;;;;;;;;10456876;28;20265;-65
2022/01/10 09:21:15;;;;;;;29.80;11.55;;;;;;;;;;10445736;28;20256;-66
2022/01/10 09:26:16;;;;;;;22.15;10.75;;;;;;;;;;10455020;28;20201;-65
2022/01/10 09:31:18;;;;;;;29.20;12.77;;;;;;;;;;10456283;28;20215;-65
2022/01/10 09:36:19;;;;;;;35.10;13.52;;;;;;;;;;10457649;28;20202;-65
2022/01/10 09:41:20;;;;;;;26.73;12.85;;;;;;;;;;10459869;28;20214;-65
2022/01/10 09:46:21;;;;;;;32.80;11.88;;;;;;;;;;10443901;28;20199;-65
2022/01/10 09:51:26;;;;;;;30.67;12.82;;;;;;;;;;10450850;28;20244;-65
2022/01/10 09:56:28;;;;;;;31.98;13.02;;;;;;;;;;10451748;28;20665;-65
2022/01/10 10:01:32;;;;;;;24.75;12.73;;;;;;;;;;10424481;28;20232;-64
2022/01/10 10:06:34;;;;;;;22.50;11.65;;;;;;;;;;10429491;28;20791;-64
2022/01/10 10:11:36;;;;;;;26.40;12.98;;;;;;;;;;10453749;28;20211;-64
2022/01/10 10:16:39;;;;;;;29.95;12.27;;;;;;;;;;10443801;28;20195;-66
2022/01/10 10:21:40;;;;;;;24.33;10.98;;;;;;;;;;10449300;28;20197;-64
2022/01/10 10:26:42;;;;;;;30.05;11.02;;;;;;;;;;10445106;28;20198;-64
2022/01/10 10:31:46;;;;;;;24.80;10.77;;;;;;;;;;10452632;28;20218;-65
2022/01/10 10:36:59;;;;;;;27.08;10.32;;;;;;;;;;10453067;28;20198;-65
2022/01/10 10:42:02;;;;;;;24.05;10.27;;;;;;;;;;10449217;28;20208;-65
2022/01/10 10:47:03;;;;;;;24.40;10.48;;;;;;;;;;10449083;28;20254;-64
2022/01/10 10:52:06;;;;;;;17.13;9.02;;;;;;;;;;10447099;28;20724;-65
2022/01/10 10:57:08;;;;;;;16.27;8.77;;;;;;;;;;10453623;28;20522;-65
2022/01/10 11:02:10;;;;;;;18.10;8.90;;;;;;;;;;10450120;28;20215;-65
2022/01/10 11:07:11;;;;;;;21.77;11.27;;;;;;;;;;10453248;28;20232;-64
2022/01/10 11:12:16;;;;;;;26.05;11.05;;;;;;;;;;10456556;28;20705;-64
2022/01/10 11:17:17;;;;;;;19.42;9.85;;;;;;;;;;10451699;28;20186;-65
2022/01/10 11:22:18;;;;;;;24.20;10.80;;;;;;;;;;10451258;28;20191;-65
2022/01/10 11:27:36;;;;;;;24.23;11.15;;;;;;;;;;10446418;28;21004;-65
2022/01/10 11:33:00;;;;;;;22.90;10.55;;;;;;;;;;10432930;28;20447;-65
2022/01/10 11:38:15;;;;;;;24.92;10.88;;;;;;;;;;10439210;28;20198;-64
2022/01/10 11:43:28;;;;;;;22.83;11.05;;;;;;;;;;10457234;28;20194;-63
2022/01/10 11:48:41;;;;;;;18.85;10.10;;;;;;;;;;10446868;28;20263;-64
2022/01/10 11:53:43;;;;;;;18.90;10.27;;;;;;;;;;10462418;28;20202;-64
2022/01/10 11:59:03;;;;;;;21.38;10.52;;;;;;;;;;10461621;28;20628;-64
2022/01/10 12:04:05;;;;;;;21.55;11.00;;;;;;;;;;10459620;28;20242;-64
2022/01/10 12:09:06;;;;;;;27.35;12.52;;;;;;;;;;10461365;28;20197;-63
2022/01/10 12:14:09;;;;;;;23.98;12.68;;;;;;;;;;10461986;28;20221;-65
2022/01/10 12:19:10;;;;;;;34.00;13.90;;;;;;;;;;10449793;28;20192;-64
2022/01/10 12:24:11;;;;;;;24.33;11.02;;;;;;;;;;10458557;28;20255;-64
2022/01/10 12:29:13;;;;;;;29.40;12.73;;;;;;;;;;10457573;28;20205;-64
2022/01/10 12:34:15;;;;;;;23.10;11.63;;;;;;;;;;10454830;28;20297;-64
2022/01/10 12:39:21;;;;;;;20.52;9.95;;;;;;;;;;10455782;28;20761;-64
2022/01/10 12:44:22;;;;;;;23.58;10.27;;;;;;;;;;10457285;28;20198;-64
2022/01/10 12:49:24;;;;;;;14.85;8.60;;;;;;;;;;10457094;28;20705;-64
2022/01/10 12:54:29;;;;;;;11.23;7.00;;;;;;;;;;10458790;28;20272;-64
2022/01/10 12:59:32;;;;;;;16.30;7.97;;;;;;;;;;10459268;28;20319;-65
2022/01/10 13:04:34;;;;;;;14.73;6.22;;;;;;;;;;10455192;28;20230;-64
2022/01/10 13:09:37;;;;;;;11.93;7.57;;;;;;;;;;10456607;28;20191;-65
2022/01/10 13:14:38;;;;;;;11.95;6.13;;;;;;;;;;10453843;28;20210;-64
2022/01/10 13:19:42;;;;;;;12.63;6.72;;;;;;;;;;10446671;28;20240;-64
2022/01/10 13:24:50;;;;;;;12.90;7.10;;;;;;;;;;10449093;28;20191;-65
2022/01/10 13:29:52;;;;;;;19.33;7.88;;;;;;;;;;10454117;28;20205;-62
2022/01/10 13:34:55;;;;;;;12.27;8.15;;;;;;;;;;10450388;28;20586;-64
2022/01/10 13:40:00;;;;;;;14.02;6.78;;;;;;;;;;10453784;28;20194;-64
2022/01/10 13:45:01;;;;;;;15.05;6.68;;;;;;;;;;10453219;28;20273;-64
2022/01/10 13:50:21;;;;;;;16.58;7.80;;;;;;;;;;10452996;28;20322;-64
2022/01/10 13:55:22;;;;;;;12.23;5.95;;;;;;;;;;10444770;28;20897;-64
2022/01/10 14:00:25;;;;;;;18.27;7.38;;;;;;;;;;10450609;28;20219;-65
2022/01/10 14:05:26;;;;;;;20.23;7.90;;;;;;;;;;10434871;28;20204;-64
2022/01/10 14:10:28;;;;;;;14.68;7.40;;;;;;;;;;10455929;28;20210;-64
2022/01/10 14:15:30;;;;;;;23.10;8.60;;;;;;;;;;10452082;28;20275;-64
2022/01/10 14:20:32;;;;;;;21.67;9.40;;;;;;;;;;10451231;28;20194;-65
2022/01/10 14:25:33;;;;;;;23.77;10.35;;;;;;;;;;10450948;28;20205;-64
2022/01/10 14:30:34;;;;;;;19.67;10.77;;;;;;;;;;10433245;28;20198;-64
2022/01/10 14:35:35;;;;;;;24.17;9.95;;;;;;;;;;10433532;28;20213;-64
2022/01/10 14:40:36;;;;;;;19.95;9.43;;;;;;;;;;10453995;28;20229;-64
2022/01/10 14:45:38;;;;;;;17.95;9.75;;;;;;;;;;10443147;28;20694;-64
2022/01/10 14:50:39;;;;;;;18.70;10.20;;;;;;;;;;10451788;28;20732;-65
2022/01/10 14:55:43;;;;;;;20.58;10.07;;;;;;;;;;10445170;28;20260;-65
2022/01/10 15:00:44;;;;;;;28.40;11.77;;;;;;;;;;10450926;28;20230;-65
2022/01/10 15:05:55;;;;;;;28.50;10.68;;;;;;;;;;10448112;28;21684;-65
2022/01/10 15:10:56;;;;;;;23.83;11.98;;;;;;;;;;10450417;28;20848;-64
2022/01/10 15:15:57;;;;;;;30.48;13.05;;;;;;;;;;10456209;28;20254;-65
2022/01/10 15:20:58;;;;;;;26.17;12.98;;;;;;;;;;10452445;28;20232;-65
2022/01/10 15:25:59;;;;;;;26.65;14.20;;;;;;;;;;10453307;28;20201;-64
2022/01/10 15:31:00;;;;;;;34.50;14.80;;;;;;;;;;10456403;28;20373;-64
2022/01/10 15:36:05;;;;;;;32.75;14.20;;;;;;;;;;10456453;28;20202;-65
2022/01/10 15:41:06;;;;;;;31.52;14.60;;;;;;;;;;10455178;28;20232;-64
2022/01/10 15:46:07;;;;;;;33.50;14.13;;;;;;;;;;10439571;28;20218;-66
2022/01/10 15:51:08;;;;;;;35.55;15.25;;;;;;;;;;10450612;28;20221;-65
2022/01/10 15:56:09;;;;;;;37.85;15.25;;;;;;;;;;10450128;28;20186;-66
2022/01/10 16:01:11;;;;;;;34.90;15.20;;;;;;;;;;10438111;28;20222;-66
2022/01/10 16:06:12;;;;;;;37.65;16.08;;;;;;;;;;10457298;28;20194;-65
2022/01/10 16:11:15;;;;;;;35.13;15.65;;;;;;;;;;10455391;28;20194;-65
2022/01/10 16:16:17;;;;;;;43.10;16.05;;;;;;;;;;10455060;28;20207;-66
2022/01/10 16:21:18;;;;;;;37.47;16.60;;;;;;;;;;10453594;28;20194;-66
2022/01/10 16:26:19;;;;;;;50.05;16.08;;;;;;;;;;10454751;28;20194;-66
2022/01/10 16:31:20;;;;;;;44.38;18.00;;;;;;;;;;10452805;28;20788;-65
2022/01/10 16:36:24;;;;;;;49.28;19.02;;;;;;;;;;10455510;28;20234;-65
2022/01/10 16:41:26;;;;;;;46.75;19.55;;;;;;;;;;10450365;28;20240;-65
2022/01/10 16:46:27;;;;;;;24.17;11.70;;;;;;;;;;10455713;28;20682;-65
2022/01/10 16:51:30;;;;;;;20.45;11.15;;;;;;;;;;10452413;28;20545;-65
2022/01/10 16:56:33;;;;;;;24.60;12.20;;;;;;;;;;10437700;28;20191;-66
2022/01/10 17:01:34;;;;;;;23.20;11.63;;;;;;;;;;10436396;28;20571;-65
2022/01/10 17:06:35;;;;;;;22.50;12.27;;;;;;;;;;10449441;28;20226;-66
2022/01/10 17:11:36;;;;;;;22.15;12.40;;;;;;;;;;10449850;28;20586;-66
2022/01/10 17:16:38;;;;;;;22.50;11.43;;;;;;;;;;10443990;28;20195;-66
2022/01/10 17:21:40;;;;;;;22.10;11.65;;;;;;;;;;10453393;28;20195;-66
2022/01/10 17:26:41;;;;;;;25.60;11.63;;;;;;;;;;10451316;28;20278;-66
2022/01/10 17:31:42;;;;;;;20.73;11.13;;;;;;;;;;10451111;28;20297;-66
2022/01/10 17:36:43;;;;;;;24.08;12.48;;;;;;;;;;10453046;28;20621;-66
2022/01/10 17:41:44;;;;;;;22.13;11.85;;;;;;;;;;10456102;28;20194;-66
2022/01/10 17:46:46;;;;;;;19.73;11.50;;;;;;;;;;10448289;28;20217;-66
2022/01/10 17:51:48;;;;;;;27.23;12.18;;;;;;;;;;10441129;28;20217;-65
2022/01/10 17:56:49;;;;;;;22.67;11.90;;;;;;;;;;10453744;28;20190;-66
2022/01/10 18:01:50;;;;;;;23.05;12.23;;;;;;;;;;10435776;28;20222;-66
2022/01/10 18:06:52;;;;;;;22.50;12.07;;;;;;;;;;10454778;28;20243;-66
2022/01/10 18:11:53;;;;;;;27.08;12.15;;;;;;;;;;10451659;28;21852;-66
2022/01/10 18:16:57;;;;;;;24.20;12.18;;;;;;;;;;10449214;28;20197;-66
2022/01/10 18:21:58;;;;;;;23.75;12.52;;;;;;;;;;10449005;28;20202;-66
2022/01/10 18:27:00;;;;;;;23.30;12.85;;;;;;;;;;10433371;28;20202;-66
2022/01/10 18:32:01;;;;;;;25.73;13.82;;;;;;;;;;10452219;28;20225;-66
2022/01/10 18:37:02;;;;;;;22.48;13.25;;;;;;;;;;10446408;28;20189;-66
2022/01/10 18:42:03;;;;;;;23.20;13.45;;;;;;;;;;10452260;28;20309;-65
2022/01/10 18:47:06;;;;;;;21.25;12.10;;;;;;;;;;10452861;28;20218;-64
2022/01/10 18:52:07;;;;;;;23.63;13.32;;;;;;;;;;10447811;28;20223;-65
2022/01/10 18:57:09;;;;;;;19.80;12.57;;;;;;;;;;10446430;28;20191;-66
2022/01/10 19:02:11;;;;;;;27.75;14.27;;;;;;;;;;10431264;28;20221;-65
2022/01/10 19:07:12;;;;;;;29.58;13.57;;;;;;;;;;10445648;28;20222;-66
2022/01/10 19:12:13;;;;;;;20.73;13.35;;;;;;;;;;10445022;28;20210;-65
2022/01/10 19:17:14;;;;;;;23.30;13.85;;;;;;;;;;10447783;28;20183;-65
2022/01/10 19:22:16;;;;;;;26.33;13.25;;;;;;;;;;10440494;28;20205;-65
2022/01/10 19:27:17;;;;;;;23.13;14.05;;;;;;;;;;10444963;28;21020;-64
2022/01/10 19:32:18;;;;;;;25.50;13.98;;;;;;;;;;10441577;28;20210;-65
2022/01/10 19:37:19;;;;;;;22.75;13.20;;;;;;;;;;10448188;28;20978;-65
2022/01/10 19:42:20;;;;;;;27.75;13.82;;;;;;;;;;10445948;28;20194;-64
2022/01/10 19:47:21;;;;;;;22.30;13.50;;;;;;;;;;10446769;28;20226;-65
2022/01/10 19:52:23;;;;;;;21.52;13.70;;;;;;;;;;10445852;28;20218;-65
2022/01/10 19:57:25;;;;;;;21.45;12.60;;;;;;;;;;10448837;28;20196;-64
2022/01/10 20:02:27;;;;;;;23.45;13.05;;;;;;;;;;10459372;28;20301;-65
2022/01/10 20:07:28;;;;;;;25.45;14.15;;;;;;;;;;10461881;28;20297;-64
2022/01/10 20:12:29;;;;;;;26.63;14.52;;;;;;;;;;10459303;28;20693;-65
2022/01/10 20:17:30;;;;;;;25.23;14.10;;;;;;;;;;10457931;28;20251;-65
2022/01/10 20:22:34;;;;;;;27.90;14.32;;;;;;;;;;10458771;28;20206;-66
2022/01/10 20:27:35;;;;;;;33.80;15.30;;;;;;;;;;10453101;28;20249;-66
2022/01/10 20:32:36;;;;;;;31.25;16.38;;;;;;;;;;10459306;28;20225;-67
2022/01/10 20:37:38;;;;;;;28.73;15.85;;;;;;;;;;10453046;28;20325;-66
2022/01/10 20:42:39;;;;;;;26.17;14.57;;;;;;;;;;10453812;28;20193;-65
2022/01/10 20:47:40;;;;;;;29.02;15.43;;;;;;;;;;10457900;28;20301;-65
2022/01/10 20:52:41;;;;;;;27.80;15.48;;;;;;;;;;10453156;28;20210;-65
2022/01/10 20:57:42;;;;;;;27.48;14.75;;;;;;;;;;10448464;28;20201;-66
2022/01/10 21:02:43;;;;;;;29.23;14.95;;;;;;;;;;10442266;28;20257;-66
2022/01/10 21:07:44;;;;;;;25.92;14.13;;;;;;;;;;10445803;28;20207;-66
2022/01/10 21:12:46;;;;;;;25.88;14.30;;;;;;;;;;10447691;28;20229;-66
2022/01/10 21:17:47;;;;;;;26.05;13.85;;;;;;;;;;10438071;28;20198;-65
2022/01/10 21:22:49;;;;;;;22.73;13.93;;;;;;;;;;10427901;28;20194;-66
2022/01/10 21:27:52;;;;;;;24.02;14.02;;;;;;;;;;10441665;28;20195;-66
2022/01/10 21:32:53;;;;;;;31.20;17.02;;;;;;;;;;10442365;28;20219;-66
2022/01/10 21:37:55;;;;;;;42.55;20.65;;;;;;;;;;10454648;28;20194;-66
2022/01/10 21:42:56;;;;;;;28.85;15.30;;;;;;;;;;10453328;28;20198;-66
2022/01/10 21:47:57;;;;;;;25.42;14.85;;;;;;;;;;10456772;28;20218;-66
2022/01/10 21:52:58;;;;;;;23.23;13.20;;;;;;;;;;10450744;28;20643;-66
2022/01/10 21:58:02;;;;;;;21.27;12.68;;;;;;;;;;10433976;28;20194;-66
2022/01/10 22:03:03;;;;;;;18.48;11.65;;;;;;;;;;10451602;28;20386;-66
2022/01/10 22:08:08;;;;;;;19.85;13.07;;;;;;;;;;10437055;28;20230;-65
2022/01/10 22:13:09;;;;;;;19.92;12.75;;;;;;;;;;10450057;28;20781;-66
2022/01/10 22:18:10;;;;;;;19.85;11.57;;;;;;;;;;10446647;28;20186;-66
2022/01/10 22:23:11;;;;;;;20.92;12.85;;;;;;;;;;10449986;28;20201;-66
2022/01/10 22:28:13;;;;;;;16.48;11.30;;;;;;;;;;10437607;28;20198;-66
2022/01/10 22:33:15;;;;;;;20.08;11.32;;;;;;;;;;10434633;28;20515;-66
2022/01/10 22:38:16;;;;;;;18.48;11.60;;;;;;;;;;10437498;28;20190;-66
2022/01/10 22:43:18;;;;;;;20.50;11.25;;;;;;;;;;10453435;28;20277;-66
2022/01/10 22:48:19;;;;;;;14.88;9.65;;;;;;;;;;10450021;28;20226;-66
2022/01/10 22:53:20;;;;;;;15.80;10.23;;;;;;;;;;10450599;28;20209;-66
2022/01/10 22:58:21;;;;;;;16.13;10.65;;;;;;;;;;10453947;28;20217;-66
2022/01/10 23:03:24;;;;;;;20.13;11.18;;;;;;;;;;10454330;28;20221;-65
2022/01/10 23:08:25;;;;;;;20.67;12.10;;;;;;;;;;10451163;28;20212;-66
2022/01/10 23:13:26;;;;;;;18.02;11.82;;;;;;;;;;10440199;28;20561;-66
2022/01/10 23:18:27;;;;;;;20.60;12.85;;;;;;;;;;10438674;28;20186;-67
2022/01/10 23:23:28;;;;;;;22.85;12.02;;;;;;;;;;10442297;28;20243;-66
2022/01/10 23:28:30;;;;;;;20.02;12.32;;;;;;;;;;10452567;28;20191;-66
2022/01/10 23:33:31;;;;;;;15.50;10.80;;;;;;;;;;10456552;28;20285;-66
2022/01/10 23:38:32;;;;;;;18.42;10.63;;;;;;;;;;10458760;28;20190;-66
2022/01/10 23:43:34;;;;;;;19.10;11.38;;;;;;;;;;10458202;28;21100;-66
2022/01/10 23:48:35;;;;;;;15.77;10.25;;;;;;;;;;10441383;28;20223;-66
2022/01/10 23:53:36;;;;;;;13.18;10.23;;;;;;;;;;10416838;28;20222;-66
2022/01/10 23:58:37;;;;;;;14.88;9.63;;;;;;;;;;10416591;28;20192;-66
